sensor_id;sensor_type;location;lat;lon;timestamp;pressure;altitude;pressure_sealevel;temperature;humidity
6343;BME280;3204;42.698;23.298;2023-09-18T00:01:47;95390.66;;;18.46;99.19
6343;BME280;3204;42.698;23.298;2023-09-18T00:04:13;95387.69;;;18.39;99.60
6343;BME280;3204;42.698;23.298;2023-09-18T00:06:38;95374.88;;;18.43;99.88
6343;BME280;3204;42.698;23.298;2023-09-18T00:09:04;95373.25;;;18.42;99.88
6343;BME280;3204;42.698;23.298;2023-09-18T00:11:31;95373.63;;;18.41;99.45
6343;BME280;3204;42.698;23.298;2023-09-18T00:13:57;95375.88;;;18.51;99.45
6343;BME280;3204;42.698;23.298;2023-09-18T00:16:22;95368.31;;;18.48;99.04
6343;BME280;3204;42.698;23.298;2023-09-18T00:18:48;95382.41;;;18.46;99.45
6343;BME280;3204;42.698;23.298;2023-09-18T00:21:13;95374.66;;;18.36;99.95
6343;BME280;3204;42.698;23.298;2023-09-18T00:23:39;95377.72;;;18.47;99.23
6343;BME280;3204;42.698;23.298;2023-09-18T00:26:05;95373.56;;;18.53;98.87
6343;BME280;3204;42.698;23.298;2023-09-18T00:28:30;95376.66;;;18.51;98.60
6343;BME280;3204;42.698;23.298;2023-09-18T00:30:56;95377.41;;;18.36;99.59
6343;BME280;3204;42.698;23.298;2023-09-18T00:33:21;95374.63;;;18.48;98.69
6343;BME280;3204;42.698;23.298;2023-09-18T00:35:51;95383.00;;;18.40;99.29
6343;BME280;3204;42.698;23.298;2023-09-18T00:38:17;95378.88;;;18.46;98.58
6343;BME280;3204;42.698;23.298;2023-09-18T00:40:42;95377.59;;;18.31;99.29
6343;BME280;3204;42.698;23.298;2023-09-18T00:43:08;95379.47;;;18.39;98.72
6343;BME280;3204;42.698;23.298;2023-09-18T00:45:38;95386.31;;;18.45;98.32
6343;BME280;3204;42.698;23.298;2023-09-18T00:48:05;95384.25;;;18.30;98.71
6343;BME280;3204;42.698;23.298;2023-09-18T00:50:30;95375.81;;;18.35;98.24
6343;BME280;3204;42.698;23.298;2023-09-18T00:52:57;95381.50;;;18.30;98.41
6343;BME280;3204;42.698;23.298;2023-09-18T00:55:22;95378.28;;;18.28;97.98
6343;BME280;3204;42.698;23.298;2023-09-18T00:57:47;95380.69;;;18.30;98.23
6343;BME280;3204;42.698;23.298;2023-09-18T01:00:13;95387.25;;;18.25;98.48
6343;BME280;3204;42.698;23.298;2023-09-18T01:02:43;95391.59;;;18.38;97.95
6343;BME280;3204;42.698;23.298;2023-09-18T01:05:10;95391.22;;;18.40;97.89
6343;BME280;3204;42.698;23.298;2023-09-18T01:07:36;95394.59;;;18.33;98.00
6343;BME280;3204;42.698;23.298;2023-09-18T01:10:02;95395.69;;;18.32;98.08
6343;BME280;3204;42.698;23.298;2023-09-18T01:12:36;95398.44;;;18.32;98.26
6343;BME280;3204;42.698;23.298;2023-09-18T01:15:14;95396.97;;;18.35;98.29
6343;BME280;3204;42.698;23.298;2023-09-18T01:17:41;95391.84;;;18.33;98.09
6343;BME280;3204;42.698;23.298;2023-09-18T01:20:11;95395.69;;;18.32;98.30
6343;BME280;3204;42.698;23.298;2023-09-18T01:22:37;95390.19;;;18.32;98.01
6343;BME280;3204;42.698;23.298;2023-09-18T01:25:03;95386.53;;;18.28;97.80
6343;BME280;3204;42.698;23.298;2023-09-18T01:27:28;95395.16;;;18.27;97.92
6343;BME280;3204;42.698;23.298;2023-09-18T01:29:54;95384.03;;;18.35;97.24
6343;BME280;3204;42.698;23.298;2023-09-18T01:32:21;95387.22;;;18.37;96.64
6343;BME280;3204;42.698;23.298;2023-09-18T01:34:51;95392.94;;;18.32;97.26
6343;BME280;3204;42.698;23.298;2023-09-18T01:37:20;95387.22;;;18.49;96.02
6343;BME280;3204;42.698;23.298;2023-09-18T01:39:48;95395.94;;;18.39;96.61
6343;BME280;3204;42.698;23.298;2023-09-18T01:42:14;95392.16;;;18.32;96.93
6343;BME280;3204;42.698;23.298;2023-09-18T01:44:41;95400.53;;;18.35;96.90
6343;BME280;3204;42.698;23.298;2023-09-18T01:47:08;95398.56;;;18.48;96.05
6343;BME280;3204;42.698;23.298;2023-09-18T01:49:35;95397.97;;;18.54;95.12
6343;BME280;3204;42.698;23.298;2023-09-18T01:52:02;95398.88;;;18.46;95.69
6343;BME280;3204;42.698;23.298;2023-09-18T01:54:29;95395.66;;;18.56;94.64
6343;BME280;3204;42.698;23.298;2023-09-18T01:56:55;95396.03;;;18.55;94.64
6343;BME280;3204;42.698;23.298;2023-09-18T01:59:21;95400.72;;;18.42;95.43
6343;BME280;3204;42.698;23.298;2023-09-18T02:01:47;95396.63;;;18.36;95.55
6343;BME280;3204;42.698;23.298;2023-09-18T02:04:13;95396.72;;;18.40;95.74
6343;BME280;3204;42.698;23.298;2023-09-18T02:06:39;95394.22;;;18.35;96.12
6343;BME280;3204;42.698;23.298;2023-09-18T02:09:05;95406.94;;;18.39;95.34
6343;BME280;3204;42.698;23.298;2023-09-18T02:11:30;95395.03;;;18.35;95.93
6343;BME280;3204;42.698;23.298;2023-09-18T02:13:56;95397.53;;;18.40;95.33
6343;BME280;3204;42.698;23.298;2023-09-18T02:16:22;95403.19;;;18.71;93.68
6343;BME280;3204;42.698;23.298;2023-09-18T02:18:47;95398.88;;;18.58;93.92
6343;BME280;3204;42.698;23.298;2023-09-18T02:21:19;95394.78;;;18.40;94.72
6343;BME280;3204;42.698;23.298;2023-09-18T02:23:45;95394.34;;;18.38;94.94
6343;BME280;3204;42.698;23.298;2023-09-18T02:26:10;95393.09;;;18.36;95.14
6343;BME280;3204;42.698;23.298;2023-09-18T02:28:36;95403.91;;;18.56;94.39
6343;BME280;3204;42.698;23.298;2023-09-18T02:31:01;95393.91;;;18.64;93.70
6343;BME280;3204;42.698;23.298;2023-09-18T02:33:28;95406.88;;;18.63;93.57
6343;BME280;3204;42.698;23.298;2023-09-18T02:35:53;95400.69;;;18.66;93.28
6343;BME280;3204;42.698;23.298;2023-09-18T02:38:18;95403.84;;;18.41;94.42
6343;BME280;3204;42.698;23.298;2023-09-18T02:40:44;95395.25;;;18.30;94.79
6343;BME280;3204;42.698;23.298;2023-09-18T02:43:09;95397.66;;;18.32;94.93
6343;BME280;3204;42.698;23.298;2023-09-18T02:45:34;95398.00;;;18.18;95.07
6343;BME280;3204;42.698;23.298;2023-09-18T02:48:00;95391.63;;;18.14;95.24
6343;BME280;3204;42.698;23.298;2023-09-18T02:50:26;95396.50;;;18.21;95.00
6343;BME280;3204;42.698;23.298;2023-09-18T02:52:51;95398.47;;;18.20;95.16
6343;BME280;3204;42.698;23.298;2023-09-18T02:55:17;95401.88;;;18.29;95.02
6343;BME280;3204;42.698;23.298;2023-09-18T02:57:42;95404.75;;;18.21;94.91
6343;BME280;3204;42.698;23.298;2023-09-18T03:00:08;95400.44;;;18.08;95.90
6343;BME280;3204;42.698;23.298;2023-09-18T03:02:35;95411.63;;;18.15;95.89
6343;BME280;3204;42.698;23.298;2023-09-18T03:05:00;95401.22;;;18.08;95.56
6343;BME280;3204;42.698;23.298;2023-09-18T03:07:26;95403.75;;;18.01;96.12
6343;BME280;3204;42.698;23.298;2023-09-18T03:09:55;95407.75;;;18.04;95.99
6343;BME280;3204;42.698;23.298;2023-09-18T03:12:20;95407.97;;;18.11;95.65
6343;BME280;3204;42.698;23.298;2023-09-18T03:14:47;95409.00;;;18.06;95.54
6343;BME280;3204;42.698;23.298;2023-09-18T03:17:13;95403.03;;;18.04;95.93
6343;BME280;3204;42.698;23.298;2023-09-18T03:19:38;95408.09;;;18.02;96.15
6343;BME280;3204;42.698;23.298;2023-09-18T03:22:04;95403.19;;;17.84;97.01
6343;BME280;3204;42.698;23.298;2023-09-18T03:24:29;95402.25;;;17.92;96.48
6343;BME280;3204;42.698;23.298;2023-09-18T03:26:55;95398.25;;;18.01;95.90
6343;BME280;3204;42.698;23.298;2023-09-18T03:29:20;95398.00;;;17.94;96.34
6343;BME280;3204;42.698;23.298;2023-09-18T03:31:46;95396.22;;;17.86;96.78
6343;BME280;3204;42.698;23.298;2023-09-18T03:34:11;95396.22;;;17.86;96.89
6343;BME280;3204;42.698;23.298;2023-09-18T03:36:37;95397.34;;;17.85;97.09
6343;BME280;3204;42.698;23.298;2023-09-18T03:39:04;95397.91;;;18.03;96.13
6343;BME280;3204;42.698;23.298;2023-09-18T03:41:30;95389.22;;;18.01;95.86
6343;BME280;3204;42.698;23.298;2023-09-18T03:44:02;95387.72;;;18.03;95.44
6343;BME280;3204;42.698;23.298;2023-09-18T03:46:28;95385.00;;;17.91;96.75
6343;BME280;3204;42.698;23.298;2023-09-18T03:48:53;95385.22;;;17.98;96.08
6343;BME280;3204;42.698;23.298;2023-09-18T03:51:20;95381.31;;;17.99;96.27
6343;BME280;3204;42.698;23.298;2023-09-18T03:53:45;95381.91;;;17.93;96.31
6343;BME280;3204;42.698;23.298;2023-09-18T03:56:13;95379.97;;;17.93;96.54
6343;BME280;3204;42.698;23.298;2023-09-18T03:58:38;95380.44;;;17.95;96.48
6343;BME280;3204;42.698;23.298;2023-09-18T04:01:04;95377.78;;;17.87;96.60
6343;BME280;3204;42.698;23.298;2023-09-18T04:03:29;95374.81;;;17.80;97.00
6343;BME280;3204;42.698;23.298;2023-09-18T04:05:54;95375.41;;;17.73;97.43
6343;BME280;3204;42.698;23.298;2023-09-18T04:08:20;95381.00;;;17.77;97.19
6343;BME280;3204;42.698;23.298;2023-09-18T04:10:45;95380.63;;;17.66;97.64
6343;BME280;3204;42.698;23.298;2023-09-18T04:13:11;95382.59;;;17.66;98.04
6343;BME280;3204;42.698;23.298;2023-09-18T04:15:37;95377.78;;;17.63;98.02
6343;BME280;3204;42.698;23.298;2023-09-18T04:18:05;95387.50;;;17.60;98.26
6343;BME280;3204;42.698;23.298;2023-09-18T04:20:31;95387.94;;;17.50;98.69
6343;BME280;3204;42.698;23.298;2023-09-18T04:23:19;95395.25;;;17.46;98.98
6343;BME280;3204;42.698;23.298;2023-09-18T04:25:45;95395.28;;;17.58;98.72
6343;BME280;3204;42.698;23.298;2023-09-18T04:28:15;95401.91;;;17.57;98.38
6343;BME280;3204;42.698;23.298;2023-09-18T04:30:41;95405.66;;;17.53;98.80
6343;BME280;3204;42.698;23.298;2023-09-18T04:33:07;95401.22;;;17.60;98.69
6343;BME280;3204;42.698;23.298;2023-09-18T04:35:33;95401.09;;;17.57;98.44
6343;BME280;3204;42.698;23.298;2023-09-18T04:37:59;95405.00;;;17.56;98.67
6343;BME280;3204;42.698;23.298;2023-09-18T04:40:24;95407.97;;;17.51;99.14
6343;BME280;3204;42.698;23.298;2023-09-18T04:42:51;95411.72;;;17.46;99.32
6343;BME280;3204;42.698;23.298;2023-09-18T04:45:17;95411.97;;;17.65;98.00
6343;BME280;3204;42.698;23.298;2023-09-18T04:47:43;95406.72;;;17.60;97.84
6343;BME280;3204;42.698;23.298;2023-09-18T04:50:08;95407.84;;;17.59;97.99
6343;BME280;3204;42.698;23.298;2023-09-18T04:52:38;95404.06;;;17.64;98.13
6343;BME280;3204;42.698;23.298;2023-09-18T04:55:05;95394.81;;;17.56;98.50
6343;BME280;3204;42.698;23.298;2023-09-18T04:57:31;95404.53;;;17.66;98.06
6343;BME280;3204;42.698;23.298;2023-09-18T04:59:57;95392.66;;;17.62;98.57
6343;BME280;3204;42.698;23.298;2023-09-18T05:02:22;95402.72;;;17.70;98.44
6343;BME280;3204;42.698;23.298;2023-09-18T05:04:50;95400.31;;;17.80;98.19
6343;BME280;3204;42.698;23.298;2023-09-18T05:07:16;95403.63;;;17.86;98.00
6343;BME280;3204;42.698;23.298;2023-09-18T05:09:41;95390.00;;;17.89;97.41
6343;BME280;3204;42.698;23.298;2023-09-18T05:12:08;95401.09;;;18.05;96.75
6343;BME280;3204;42.698;23.298;2023-09-18T05:14:41;95404.41;;;18.22;95.70
6343;BME280;3204;42.698;23.298;2023-09-18T05:17:10;95406.38;;;18.22;95.78
6343;BME280;3204;42.698;23.298;2023-09-18T05:19:36;95409.34;;;18.41;94.05
6343;BME280;3204;42.698;23.298;2023-09-18T05:22:02;95414.59;;;18.34;94.30
6343;BME280;3204;42.698;23.298;2023-09-18T05:24:28;95415.84;;;18.48;94.14
6343;BME280;3204;42.698;23.298;2023-09-18T05:26:54;95415.84;;;18.48;94.33
6343;BME280;3204;42.698;23.298;2023-09-18T05:29:20;95415.69;;;18.57;94.11
6343;BME280;3204;42.698;23.298;2023-09-18T05:31:46;95422.09;;;18.61;93.23
6343;BME280;3204;42.698;23.298;2023-09-18T05:34:12;95414.88;;;18.68;93.45
6343;BME280;3204;42.698;23.298;2023-09-18T05:36:37;95418.38;;;18.81;93.06
6343;BME280;3204;42.698;23.298;2023-09-18T05:39:03;95416.19;;;18.86;92.49
6343;BME280;3204;42.698;23.298;2023-09-18T05:41:29;95415.88;;;19.03;90.66
6343;BME280;3204;42.698;23.298;2023-09-18T05:43:56;95416.03;;;18.95;90.05
6343;BME280;3204;42.698;23.298;2023-09-18T05:46:21;95421.06;;;19.20;90.18
6343;BME280;3204;42.698;23.298;2023-09-18T05:48:47;95421.06;;;19.20;89.39
6343;BME280;3204;42.698;23.298;2023-09-18T05:51:12;95424.16;;;19.19;89.40
6343;BME280;3204;42.698;23.298;2023-09-18T05:53:37;95428.31;;;19.40;89.10
6343;BME280;3204;42.698;23.298;2023-09-18T05:56:04;95423.19;;;19.54;88.67
6343;BME280;3204;42.698;23.298;2023-09-18T05:58:32;95427.22;;;19.72;88.30
6343;BME280;3204;42.698;23.298;2023-09-18T06:01:00;95428.81;;;20.04;86.20
6343;BME280;3204;42.698;23.298;2023-09-18T06:03:26;95420.53;;;20.20;84.80
6343;BME280;3204;42.698;23.298;2023-09-18T06:05:52;95422.53;;;20.19;84.57
6343;BME280;3204;42.698;23.298;2023-09-18T06:08:18;95421.44;;;20.24;84.74
6343;BME280;3204;42.698;23.298;2023-09-18T06:10:44;95417.84;;;20.39;85.08
6343;BME280;3204;42.698;23.298;2023-09-18T06:13:10;95419.41;;;20.55;83.33
6343;BME280;3204;42.698;23.298;2023-09-18T06:15:35;95422.16;;;20.55;83.01
6343;BME280;3204;42.698;23.298;2023-09-18T06:18:01;95425.69;;;20.37;83.58
6343;BME280;3204;42.698;23.298;2023-09-18T06:20:27;95430.38;;;20.36;83.80
6343;BME280;3204;42.698;23.298;2023-09-18T06:22:52;95420.41;;;20.47;83.32
6343;BME280;3204;42.698;23.298;2023-09-18T06:25:17;95426.97;;;20.58;83.55
6343;BME280;3204;42.698;23.298;2023-09-18T06:27:43;95425.44;;;20.61;83.13
6343;BME280;3204;42.698;23.298;2023-09-18T06:30:09;95433.63;;;20.57;82.59
6343;BME280;3204;42.698;23.298;2023-09-18T06:32:34;95432.03;;;20.56;82.75
6343;BME280;3204;42.698;23.298;2023-09-18T06:35:02;95434.28;;;20.51;82.47
6343;BME280;3204;42.698;23.298;2023-09-18T06:37:28;95424.06;;;20.51;82.40
6343;BME280;3204;42.698;23.298;2023-09-18T06:39:53;95424.06;;;20.51;82.68
6343;BME280;3204;42.698;23.298;2023-09-18T06:42:19;95428.69;;;20.47;82.91
6343;BME280;3204;42.698;23.298;2023-09-18T06:44:45;95421.41;;;20.74;82.50
6343;BME280;3204;42.698;23.298;2023-09-18T06:47:10;95427.84;;;20.62;81.66
6343;BME280;3204;42.698;23.298;2023-09-18T06:49:36;95430.75;;;20.69;82.13
6343;BME280;3204;42.698;23.298;2023-09-18T06:52:02;95420.94;;;20.72;81.79
6343;BME280;3204;42.698;23.298;2023-09-18T06:54:27;95434.00;;;20.90;80.95
6343;BME280;3204;42.698;23.298;2023-09-18T06:56:53;95436.13;;;21.16;79.88
6343;BME280;3204;42.698;23.298;2023-09-18T06:59:18;95439.81;;;21.23;79.55
6343;BME280;3204;42.698;23.298;2023-09-18T07:01:44;95425.44;;;21.33;79.14
6343;BME280;3204;42.698;23.298;2023-09-18T07:04:09;95441.25;;;21.36;78.64
6343;BME280;3204;42.698;23.298;2023-09-18T07:06:34;95429.59;;;21.65;78.61
6343;BME280;3204;42.698;23.298;2023-09-18T07:09:00;95433.16;;;21.88;76.77
6343;BME280;3204;42.698;23.298;2023-09-18T07:11:25;95427.09;;;22.02;76.29
6343;BME280;3204;42.698;23.298;2023-09-18T07:13:51;95431.91;;;22.31;75.85
6343;BME280;3204;42.698;23.298;2023-09-18T07:16:16;95431.13;;;22.82;74.63
6343;BME280;3204;42.698;23.298;2023-09-18T07:18:42;95434.09;;;22.96;72.85
6343;BME280;3204;42.698;23.298;2023-09-18T07:21:08;95443.91;;;22.90;72.79
6343;BME280;3204;42.698;23.298;2023-09-18T07:23:33;95435.41;;;23.06;72.03
6343;BME280;3204;42.698;23.298;2023-09-18T07:26:02;95437.75;;;23.04;71.75
6343;BME280;3204;42.698;23.298;2023-09-18T07:28:28;95436.72;;;23.45;71.86
6343;BME280;3204;42.698;23.298;2023-09-18T07:30:53;95436.03;;;23.55;70.63
6343;BME280;3204;42.698;23.298;2023-09-18T07:33:19;95435.00;;;23.33;71.16
6343;BME280;3204;42.698;23.298;2023-09-18T07:35:46;95437.28;;;23.28;71.47
6343;BME280;3204;42.698;23.298;2023-09-18T07:38:12;95432.22;;;23.70;69.70
6343;BME280;3204;42.698;23.298;2023-09-18T07:40:38;95434.19;;;24.02;68.64
6343;BME280;3204;42.698;23.298;2023-09-18T07:43:03;95437.88;;;24.20;67.32
6343;BME280;3204;42.698;23.298;2023-09-18T07:45:28;95434.00;;;23.88;67.62
6343;BME280;3204;42.698;23.298;2023-09-18T07:47:54;95431.00;;;24.04;68.10
6343;BME280;3204;42.698;23.298;2023-09-18T07:50:19;95435.72;;;24.47;67.05
6343;BME280;3204;42.698;23.298;2023-09-18T07:52:45;95438.97;;;24.09;67.56
6343;BME280;3204;42.698;23.298;2023-09-18T07:55:10;95430.41;;;23.84;68.41
6343;BME280;3204;42.698;23.298;2023-09-18T07:57:36;95434.56;;;23.64;67.93
6343;BME280;3204;42.698;23.298;2023-09-18T08:00:03;95424.09;;;23.87;68.17
6343;BME280;3204;42.698;23.298;2023-09-18T08:02:33;95427.66;;;23.88;67.59
6343;BME280;3204;42.698;23.298;2023-09-18T08:05:00;95431.41;;;24.02;68.26
6343;BME280;3204;42.698;23.298;2023-09-18T08:07:27;95428.28;;;23.71;68.07
6343;BME280;3204;42.698;23.298;2023-09-18T08:09:53;95422.75;;;24.07;67.40
6343;BME280;3204;42.698;23.298;2023-09-18T08:12:19;95427.69;;;24.31;66.53
6343;BME280;3204;42.698;23.298;2023-09-18T08:14:44;95423.31;;;24.30;66.49
6343;BME280;3204;42.698;23.298;2023-09-18T08:17:10;95433.81;;;24.54;66.01
6343;BME280;3204;42.698;23.298;2023-09-18T08:19:35;95429.06;;;24.08;66.00
6343;BME280;3204;42.698;23.298;2023-09-18T08:22:02;95415.13;;;23.97;66.85
6343;BME280;3204;42.698;23.298;2023-09-18T08:24:29;95410.72;;;23.56;67.30
6343;BME280;3204;42.698;23.298;2023-09-18T08:26:54;95419.88;;;24.00;67.21
6343;BME280;3204;42.698;23.298;2023-09-18T08:29:21;95410.16;;;24.20;66.67
6343;BME280;3204;42.698;23.298;2023-09-18T08:31:47;95407.13;;;24.93;64.64
6343;BME280;3204;42.698;23.298;2023-09-18T08:34:13;95415.78;;;25.63;62.95
6343;BME280;3204;42.698;23.298;2023-09-18T08:36:39;95413.56;;;25.15;62.40
6343;BME280;3204;42.698;23.298;2023-09-18T08:39:05;95413.81;;;25.78;61.52
6343;BME280;3204;42.698;23.298;2023-09-18T08:41:38;95419.47;;;26.20;60.72
6343;BME280;3204;42.698;23.298;2023-09-18T08:44:07;95410.69;;;26.42;60.08
6343;BME280;3204;42.698;23.298;2023-09-18T08:46:34;95401.19;;;26.33;59.95
6343;BME280;3204;42.698;23.298;2023-09-18T08:49:00;95400.78;;;26.66;58.70
6343;BME280;3204;42.698;23.298;2023-09-18T08:51:26;95397.59;;;26.39;58.61
6343;BME280;3204;42.698;23.298;2023-09-18T08:53:53;95388.84;;;26.51;58.83
6343;BME280;3204;42.698;23.298;2023-09-18T08:56:20;95392.44;;;26.38;58.51
6343;BME280;3204;42.698;23.298;2023-09-18T08:58:46;95411.09;;;26.02;59.19
6343;BME280;3204;42.698;23.298;2023-09-18T09:01:12;95398.75;;;25.96;59.03
6343;BME280;3204;42.698;23.298;2023-09-18T09:03:39;95393.94;;;25.72;59.60
6343;BME280;3204;42.698;23.298;2023-09-18T09:06:06;95388.41;;;25.83;59.50
6343;BME280;3204;42.698;23.298;2023-09-18T09:08:33;95389.91;;;25.52;60.32
6343;BME280;3204;42.698;23.298;2023-09-18T09:10:58;95391.66;;;26.16;59.09
6343;BME280;3204;42.698;23.298;2023-09-18T09:13:24;95385.94;;;27.07;57.05
6343;BME280;3204;42.698;23.298;2023-09-18T09:15:54;95388.03;;;27.83;55.45
6343;BME280;3204;42.698;23.298;2023-09-18T09:18:22;95383.78;;;28.19;53.82
6343;BME280;3204;42.698;23.298;2023-09-18T09:20:54;95384.44;;;28.37;53.72
6343;BME280;3204;42.698;23.298;2023-09-18T09:23:23;95393.00;;;28.16;52.64
6343;BME280;3204;42.698;23.298;2023-09-18T09:25:49;95375.59;;;27.04;54.87
6343;BME280;3204;42.698;23.298;2023-09-18T09:28:14;95369.00;;;27.64;54.46
6343;BME280;3204;42.698;23.298;2023-09-18T09:30:42;95371.31;;;27.76;53.50
6343;BME280;3204;42.698;23.298;2023-09-18T09:33:11;95371.88;;;27.42;54.55
6343;BME280;3204;42.698;23.298;2023-09-18T09:35:37;95374.00;;;27.97;53.04
6343;BME280;3204;42.698;23.298;2023-09-18T09:38:12;95368.09;;;28.39;51.77
6343;BME280;3204;42.698;23.298;2023-09-18T09:40:42;95370.47;;;27.89;52.33
6343;BME280;3204;42.698;23.298;2023-09-18T09:43:10;95372.88;;;27.84;52.70
6343;BME280;3204;42.698;23.298;2023-09-18T09:45:40;95367.50;;;28.10;52.98
6343;BME280;3204;42.698;23.298;2023-09-18T09:48:06;95362.28;;;27.54;53.65
6343;BME280;3204;42.698;23.298;2023-09-18T09:50:32;95358.75;;;27.43;53.40
6343;BME280;3204;42.698;23.298;2023-09-18T09:52:58;95364.53;;;26.87;54.45
6343;BME280;3204;42.698;23.298;2023-09-18T09:55:29;95359.13;;;27.45;54.24
6343;BME280;3204;42.698;23.298;2023-09-18T09:58:03;95354.56;;;26.89;54.60
6343;BME280;3204;42.698;23.298;2023-09-18T10:00:32;95353.41;;;26.76;54.85
6343;BME280;3204;42.698;23.298;2023-09-18T10:03:20;95358.81;;;27.33;54.76
6343;BME280;3204;42.698;23.298;2023-09-18T10:05:51;95356.09;;;28.38;52.26
6343;BME280;3204;42.698;23.298;2023-09-18T10:10:53;95344.25;;;27.73;52.38
6343;BME280;3204;42.698;23.298;2023-09-18T10:15:50;95350.91;;;27.93;50.76
6343;BME280;3204;42.698;23.298;2023-09-18T10:18:39;95340.28;;;27.70;52.26
6343;BME280;3204;42.698;23.298;2023-09-18T10:21:22;95331.78;;;27.23;52.54
6343;BME280;3204;42.698;23.298;2023-09-18T10:26:23;95334.28;;;26.92;53.90
6343;BME280;3204;42.698;23.298;2023-09-18T10:28:56;95326.25;;;27.19;53.23
6343;BME280;3204;42.698;23.298;2023-09-18T10:31:28;95325.72;;;28.00;51.43
6343;BME280;3204;42.698;23.298;2023-09-18T10:33:55;95317.97;;;28.25;50.58
6343;BME280;3204;42.698;23.298;2023-09-18T10:36:22;95315.91;;;28.29;50.20
6343;BME280;3204;42.698;23.298;2023-09-18T10:38:49;95305.84;;;28.42;50.60
6343;BME280;3204;42.698;23.298;2023-09-18T10:41:19;95315.31;;;28.55;49.99
6343;BME280;3204;42.698;23.298;2023-09-18T10:43:46;95310.44;;;28.99;49.11
6343;BME280;3204;42.698;23.298;2023-09-18T10:46:13;95312.56;;;28.48;48.77
6343;BME280;3204;42.698;23.298;2023-09-18T10:48:42;95307.09;;;28.34;49.35
6343;BME280;3204;42.698;23.298;2023-09-18T10:51:10;95304.13;;;28.88;48.34
6343;BME280;3204;42.698;23.298;2023-09-18T10:53:36;95297.44;;;29.16;46.96
6343;BME280;3204;42.698;23.298;2023-09-18T10:56:02;95302.66;;;29.44;47.22
6343;BME280;3204;42.698;23.298;2023-09-18T10:58:32;95284.31;;;28.79;48.40
6343;BME280;3204;42.698;23.298;2023-09-18T11:01:02;95294.44;;;28.26;49.31
6343;BME280;3204;42.698;23.298;2023-09-18T11:03:27;95275.31;;;27.73;50.28
6343;BME280;3204;42.698;23.298;2023-09-18T11:06:11;95288.69;;;27.41;50.67
6343;BME280;3204;42.698;23.298;2023-09-18T11:11:12;95283.91;;;27.42;51.40
6343;BME280;3204;42.698;23.298;2023-09-18T11:13:51;95270.09;;;27.17;51.97
6343;BME280;3204;42.698;23.298;2023-09-18T11:19:16;95275.50;;;27.49;51.20
6343;BME280;3204;42.698;23.298;2023-09-18T11:21:39;95273.34;;;27.74;49.82
6343;BME280;3204;42.698;23.298;2023-09-18T11:26:31;95263.47;;;28.13;48.96
6343;BME280;3204;42.698;23.298;2023-09-18T11:29:03;95269.88;;;28.51;48.00
6343;BME280;3204;42.698;23.298;2023-09-18T11:31:49;95258.41;;;28.75;48.17
6343;BME280;3204;42.698;23.298;2023-09-18T11:34:30;95265.41;;;28.57;48.26
6343;BME280;3204;42.698;23.298;2023-09-18T11:37:00;95259.66;;;28.71;47.92
6343;BME280;3204;42.698;23.298;2023-09-18T11:39:36;95257.63;;;28.75;47.89
6343;BME280;3204;42.698;23.298;2023-09-18T11:44:35;95254.66;;;29.49;46.57
6343;BME280;3204;42.698;23.298;2023-09-18T11:47:02;95247.22;;;29.09;46.83
6343;BME280;3204;42.698;23.298;2023-09-18T11:49:30;95242.38;;;28.83;47.58
6343;BME280;3204;42.698;23.298;2023-09-18T11:52:00;95243.84;;;28.20;48.61
6343;BME280;3204;42.698;23.298;2023-09-18T11:54:27;95232.75;;;27.66;49.63
6343;BME280;3204;42.698;23.298;2023-09-18T11:56:54;95243.22;;;28.02;49.52
6343;BME280;3204;42.698;23.298;2023-09-18T11:59:33;95240.09;;;28.34;48.58
6343;BME280;3204;42.698;23.298;2023-09-18T12:01:58;95231.13;;;28.53;48.27
6343;BME280;3204;42.698;23.298;2023-09-18T12:04:31;95236.19;;;28.65;48.02
6343;BME280;3204;42.698;23.298;2023-09-18T12:06:58;95236.94;;;29.02;47.04
6343;BME280;3204;42.698;23.298;2023-09-18T12:09:28;95243.53;;;28.85;47.47
6343;BME280;3204;42.698;23.298;2023-09-18T12:12:00;95238.81;;;28.79;47.43
6343;BME280;3204;42.698;23.298;2023-09-18T12:14:32;95237.53;;;28.13;48.71
6343;BME280;3204;42.698;23.298;2023-09-18T12:17:02;95240.06;;;28.41;48.48
6343;BME280;3204;42.698;23.298;2023-09-18T12:19:29;95238.06;;;28.75;47.88
6343;BME280;3204;42.698;23.298;2023-09-18T12:21:55;95232.63;;;28.94;47.97
6343;BME280;3204;42.698;23.298;2023-09-18T12:24:22;95235.50;;;28.87;48.48
6343;BME280;3204;42.698;23.298;2023-09-18T12:26:48;95222.69;;;28.23;48.76
6343;BME280;3204;42.698;23.298;2023-09-18T12:29:14;95217.13;;;27.79;50.84
6343;BME280;3204;42.698;23.298;2023-09-18T12:31:40;95212.34;;;27.83;51.14
6343;BME280;3204;42.698;23.298;2023-09-18T12:34:14;95209.78;;;27.51;51.79
6343;BME280;3204;42.698;23.298;2023-09-18T12:36:44;95218.03;;;27.03;52.86
6343;BME280;3204;42.698;23.298;2023-09-18T12:39:13;95216.59;;;26.78;53.07
6343;BME280;3204;42.698;23.298;2023-09-18T12:41:46;95209.03;;;26.78;53.11
6343;BME280;3204;42.698;23.298;2023-09-18T12:44:12;95207.69;;;27.07;52.26
6343;BME280;3204;42.698;23.298;2023-09-18T12:46:40;95216.69;;;27.33;51.99
6343;BME280;3204;42.698;23.298;2023-09-18T12:49:23;95215.25;;;27.62;51.16
6343;BME280;3204;42.698;23.298;2023-09-18T12:54:35;95210.44;;;27.66;50.22
6343;BME280;3204;42.698;23.298;2023-09-18T12:57:01;95209.44;;;27.46;49.19
6343;BME280;3204;42.698;23.298;2023-09-18T12:59:33;95203.34;;;26.99;50.07
6343;BME280;3204;42.698;23.298;2023-09-18T13:02:01;95197.91;;;26.78;50.59
6343;BME280;3204;42.698;23.298;2023-09-18T13:04:32;95204.50;;;27.05;50.72
6343;BME280;3204;42.698;23.298;2023-09-18T13:07:10;95205.66;;;27.11;51.08
6343;BME280;3204;42.698;23.298;2023-09-18T13:09:36;95194.69;;;27.49;50.60
6343;BME280;3204;42.698;23.298;2023-09-18T13:12:03;95204.59;;;28.01;49.75
6343;BME280;3204;42.698;23.298;2023-09-18T13:14:29;95217.25;;;28.09;49.36
6343;BME280;3204;42.698;23.298;2023-09-18T13:17:00;95213.94;;;27.77;49.92
6343;BME280;3204;42.698;23.298;2023-09-18T13:19:28;95203.44;;;27.43;49.95
6343;BME280;3204;42.698;23.298;2023-09-18T13:21:54;95201.03;;;27.49;49.85
6343;BME280;3204;42.698;23.298;2023-09-18T13:24:29;95196.63;;;27.52;50.20
6343;BME280;3204;42.698;23.298;2023-09-18T13:26:56;95194.47;;;27.70;49.92
6343;BME280;3204;42.698;23.298;2023-09-18T13:29:23;95195.41;;;28.00;49.51
6343;BME280;3204;42.698;23.298;2023-09-18T13:31:49;95201.03;;;27.97;49.49